サルタ の空港の天気 - METARとTAF

サルタ空港 ( SASA / SLA ) - アルゼンチン サルタ州、Salta
飛行場実況気象(Metar)
観測時間01/23 05:00 ART (01/23 08:00 UTC)
風向・風速南 1m/s
視程10km以上
天気現象
少しの雲 雲底高度 610m
気温19℃
湿度94%
気圧1009hPa
METARSASA 230800Z 18002KT 9999 FEW020 19/18 Q1009
過去の天気等 Google飛行場航空写真 Wunderground天気予報

過去48時間のMETAR

飛行場予報(TAF)
発表時間: 1/23 02:00 ART (1/23 05:00 UTC)
予報対象時間: 23日3時 ART ~ 24日3時 ART
風向・風速北北東 5m/s
視程10km以上
全天の4割程度の雲 雲底高度 760m
少しの積乱雲 雲底高度 1,220m
23日3時 ART ~ 23日6時 ART に 確率 40% で一時的に
風向・風速東 5m/s
視程4,000m
天気現象雷雨
少しの雲 雲底高度 460m
全天の8割程度の雲 雲底高度 610m
少しの雲 雲底高度 m
TAF SASA 230500Z 2306/2406 02010KT 9999 SCT025 FEW040CB TX33/2318Z TN17/2310Z
PROB40 TEMPO 2306/2309 09010KT 4000 TSRA FEW015 BKN020 FEW0MG 14005KT 9999 BKN020